sensor_id;sensor_type;location;lat;lon;timestamp;pressure;altitude;pressure_sealevel;temperature;humidity
34983;BME280;21187;50.976;13.720;2023-05-06T00:02:54;98198.53;;;17.58;46.87
34983;BME280;21187;50.976;13.720;2023-05-06T00:07:56;98179.31;;;17.69;46.74
34983;BME280;21187;50.976;13.720;2023-05-06T00:12:58;98176.59;;;17.73;46.55
34983;BME280;21187;50.976;13.720;2023-05-06T00:18:00;98167.56;;;17.72;46.70
34983;BME280;21187;50.976;13.720;2023-05-06T00:23:02;98163.31;;;17.64;46.88
34983;BME280;21187;50.976;13.720;2023-05-06T00:28:04;98148.09;;;17.56;47.12
34983;BME280;21187;50.976;13.720;2023-05-06T00:33:06;98149.66;;;17.50;47.40
34983;BME280;21187;50.976;13.720;2023-05-06T00:38:12;98142.66;;;17.49;47.59
34983;BME280;21187;50.976;13.720;2023-05-06T00:43:16;98140.69;;;17.45;47.58
34983;BME280;21187;50.976;13.720;2023-05-06T00:48:18;98157.13;;;17.42;47.94
34983;BME280;21187;50.976;13.720;2023-05-06T00:53:20;98146.56;;;17.44;48.11
34983;BME280;21187;50.976;13.720;2023-05-06T00:58:24;98145.00;;;17.46;47.99
34983;BME280;21187;50.976;13.720;2023-05-06T01:03:26;98142.69;;;17.34;48.70
34983;BME280;21187;50.976;13.720;2023-05-06T01:08:35;98126.28;;;17.23;48.89
34983;BME280;21187;50.976;13.720;2023-05-06T01:13:49;98120.84;;;17.20;49.16
34983;BME280;21187;50.976;13.720;2023-05-06T01:18:53;98138.81;;;17.06;49.20
34983;BME280;21187;50.976;13.720;2023-05-06T01:23:56;98137.69;;;16.96;49.52
34983;BME280;21187;50.976;13.720;2023-05-06T01:28:59;98138.44;;;16.97;49.74
34983;BME280;21187;50.976;13.720;2023-05-06T01:34:09;98130.22;;;16.86;50.19
34983;BME280;21187;50.976;13.720;2023-05-06T01:44:21;98137.28;;;16.73;49.99
34983;BME280;21187;50.976;13.720;2023-05-06T01:49:24;98128.31;;;16.69;50.14
34983;BME280;21187;50.976;13.720;2023-05-06T01:54:27;98127.94;;;16.63;50.54
34983;BME280;21187;50.976;13.720;2023-05-06T01:59:28;98126.34;;;16.62;50.79
34983;BME280;21187;50.976;13.720;2023-05-06T02:04:31;98127.16;;;16.59;51.05
34983;BME280;21187;50.976;13.720;2023-05-06T02:09:33;98121.66;;;16.52;51.45
34983;BME280;21187;50.976;13.720;2023-05-06T02:14:36;98116.22;;;16.44;51.60
34983;BME280;21187;50.976;13.720;2023-05-06T02:19:39;98099.78;;;16.37;51.92
34983;BME280;21187;50.976;13.720;2023-05-06T02:24:41;98095.09;;;16.27;52.29
34983;BME280;21187;50.976;13.720;2023-05-06T02:29:45;98086.13;;;16.26;52.64
34983;BME280;21187;50.976;13.720;2023-05-06T02:34:47;98080.28;;;16.35;52.56
34983;BME280;21187;50.976;13.720;2023-05-06T02:39:49;98084.94;;;16.45;52.26
34983;BME280;21187;50.976;13.720;2023-05-06T02:44:50;98078.72;;;16.49;52.25
34983;BME280;21187;50.976;13.720;2023-05-06T02:49:52;98068.94;;;16.55;52.28
34983;BME280;21187;50.976;13.720;2023-05-06T02:54:55;98075.19;;;16.62;52.23
34983;BME280;21187;50.976;13.720;2023-05-06T02:59:57;98082.97;;;16.64;52.34
34983;BME280;21187;50.976;13.720;2023-05-06T03:04:58;98082.63;;;16.62;52.43
34983;BME280;21187;50.976;13.720;2023-05-06T03:10:00;98074.41;;;16.55;52.80
34983;BME280;21187;50.976;13.720;2023-05-06T03:15:06;98079.50;;;16.42;53.17
34983;BME280;21187;50.976;13.720;2023-05-06T03:20:10;98082.63;;;16.19;54.50
34983;BME280;21187;50.976;13.720;2023-05-06T03:25:16;98084.94;;;15.99;55.19
34983;BME280;21187;50.976;13.720;2023-05-06T03:30:19;98088.03;;;15.90;55.35
34983;BME280;21187;50.976;13.720;2023-05-06T03:35:24;98090.00;;;16.00;55.32
34983;BME280;21187;50.976;13.720;2023-05-06T03:40:30;98084.94;;;16.09;55.07
34983;BME280;21187;50.976;13.720;2023-05-06T03:45:32;98089.66;;;16.20;54.97
34983;BME280;21187;50.976;13.720;2023-05-06T03:50:36;98079.47;;;16.31;54.64
34983;BME280;21187;50.976;13.720;2023-05-06T03:55:39;98075.59;;;16.39;54.63
34983;BME280;21187;50.976;13.720;2023-05-06T04:00:41;98084.59;;;16.47;54.60
34983;BME280;21187;50.976;13.720;2023-05-06T04:05:44;98079.88;;;16.55;54.61
34983;BME280;21187;50.976;13.720;2023-05-06T04:10:48;98085.75;;;16.60;54.47
34983;BME280;21187;50.976;13.720;2023-05-06T04:15:59;98087.28;;;16.65;54.46
34983;BME280;21187;50.976;13.720;2023-05-06T04:21:08;98089.63;;;16.67;54.66
34983;BME280;21187;50.976;13.720;2023-05-06T04:26:15;98105.28;;;16.59;55.20
34983;BME280;21187;50.976;13.720;2023-05-06T04:31:18;98111.53;;;16.49;55.60
34983;BME280;21187;50.976;13.720;2023-05-06T04:36:23;98108.38;;;16.57;55.38
34983;BME280;21187;50.976;13.720;2023-05-06T04:41:47;98115.44;;;16.66;55.48
34983;BME280;21187;50.976;13.720;2023-05-06T04:46:55;98118.16;;;16.73;55.46
34983;BME280;21187;50.976;13.720;2023-05-06T04:51:57;98125.19;;;16.77;55.38
34983;BME280;21187;50.976;13.720;2023-05-06T04:57:00;98123.59;;;16.84;55.66
34983;BME280;21187;50.976;13.720;2023-05-06T05:02:04;98127.53;;;16.75;56.27
34983;BME280;21187;50.976;13.720;2023-05-06T05:07:06;98125.94;;;16.74;56.65
34983;BME280;21187;50.976;13.720;2023-05-06T05:12:09;98130.25;;;16.72;56.83
34983;BME280;21187;50.976;13.720;2023-05-06T05:17:15;98127.91;;;16.70;57.09
34983;BME280;21187;50.976;13.720;2023-05-06T05:22:19;98130.25;;;16.64;57.72
34983;BME280;21187;50.976;13.720;2023-05-06T05:27:21;98138.06;;;16.70;57.71
34983;BME280;21187;50.976;13.720;2023-05-06T05:32:25;98139.22;;;16.79;57.55
34983;BME280;21187;50.976;13.720;2023-05-06T05:37:27;98143.53;;;16.80;57.94
34983;BME280;21187;50.976;13.720;2023-05-06T05:42:29;98141.97;;;16.54;59.29
34983;BME280;21187;50.976;13.720;2023-05-06T05:47:39;98139.63;;;16.45;59.14
34983;BME280;21187;50.976;13.720;2023-05-06T05:52:41;98147.44;;;16.43;59.35
34983;BME280;21187;50.976;13.720;2023-05-06T05:57:44;98150.16;;;16.29;59.86
34983;BME280;21187;50.976;13.720;2023-05-06T06:02:46;98143.13;;;16.28;59.84
34983;BME280;21187;50.976;13.720;2023-05-06T06:07:52;98161.47;;;16.24;59.91
34983;BME280;21187;50.976;13.720;2023-05-06T06:12:57;98163.38;;;16.05;60.47
34983;BME280;21187;50.976;13.720;2023-05-06T06:18:02;98166.44;;;15.86;60.98
34983;BME280;21187;50.976;13.720;2023-05-06T06:23:04;98175.75;;;15.77;60.81
34983;BME280;21187;50.976;13.720;2023-05-06T06:28:06;98173.06;;;15.85;60.43
34983;BME280;21187;50.976;13.720;2023-05-06T06:33:09;98173.06;;;15.85;60.49
34983;BME280;21187;50.976;13.720;2023-05-06T06:38:10;98182.44;;;15.84;60.44
34983;BME280;21187;50.976;13.720;2023-05-06T06:43:12;98185.53;;;15.82;60.42
34983;BME280;21187;50.976;13.720;2023-05-06T06:48:33;98187.06;;;15.79;60.52
34983;BME280;21187;50.976;13.720;2023-05-06T06:53:35;98192.19;;;15.81;61.14
34983;BME280;21187;50.976;13.720;2023-05-06T06:58:37;98186.34;;;15.90;61.38
34983;BME280;21187;50.976;13.720;2023-05-06T07:03:38;98191.84;;;15.97;62.19
34983;BME280;21187;50.976;13.720;2023-05-06T07:08:40;98187.59;;;16.10;62.15
34983;BME280;21187;50.976;13.720;2023-05-06T07:13:42;98198.56;;;16.43;61.51
34983;BME280;21187;50.976;13.720;2023-05-06T07:18:44;98209.16;;;16.66;61.40
34983;BME280;21187;50.976;13.720;2023-05-06T07:23:46;98197.44;;;16.73;60.97
34983;BME280;21187;50.976;13.720;2023-05-06T07:28:48;98204.47;;;16.70;60.85
34983;BME280;21187;50.976;13.720;2023-05-06T07:33:50;98211.91;;;16.59;61.28
34983;BME280;21187;50.976;13.720;2023-05-06T07:38:52;98204.88;;;16.58;61.13
34983;BME280;21187;50.976;13.720;2023-05-06T07:43:54;98216.19;;;16.53;61.10
34983;BME280;21187;50.976;13.720;2023-05-06T07:48:56;98217.75;;;16.54;61.12
34983;BME280;21187;50.976;13.720;2023-05-06T07:53:58;98222.84;;;16.59;60.97
34983;BME280;21187;50.976;13.720;2023-05-06T07:59:00;98223.63;;;16.70;60.50
34983;BME280;21187;50.976;13.720;2023-05-06T08:09:02;98222.47;;;16.86;60.42
34983;BME280;21187;50.976;13.720;2023-05-06T08:14:04;98229.50;;;16.90;60.49
34983;BME280;21187;50.976;13.720;2023-05-06T08:19:06;98234.22;;;16.90;60.35
34983;BME280;21187;50.976;13.720;2023-05-06T08:24:08;98236.16;;;16.96;60.00
34983;BME280;21187;50.976;13.720;2023-05-06T08:29:11;98243.97;;;16.98;59.93
34983;BME280;21187;50.976;13.720;2023-05-06T08:34:14;98252.19;;;17.09;59.50
34983;BME280;21187;50.976;13.720;2023-05-06T08:39:19;98252.97;;;17.17;58.98
34983;BME280;21187;50.976;13.720;2023-05-06T08:44:22;98261.56;;;17.19;58.70
34983;BME280;21187;50.976;13.720;2023-05-06T08:49:25;98274.09;;;17.16;58.21
34983;BME280;21187;50.976;13.720;2023-05-06T08:54:27;98278.78;;;17.16;58.27
34983;BME280;21187;50.976;13.720;2023-05-06T08:59:29;98273.28;;;17.23;58.23
34983;BME280;21187;50.976;13.720;2023-05-06T09:04:34;98270.16;;;17.32;58.18
34983;BME280;21187;50.976;13.720;2023-05-06T09:09:36;98272.50;;;17.40;57.59
34983;BME280;21187;50.976;13.720;2023-05-06T09:14:38;98282.69;;;17.40;57.43
34983;BME280;21187;50.976;13.720;2023-05-06T09:19:40;98286.56;;;17.35;57.31
34983;BME280;21187;50.976;13.720;2023-05-06T09:24:42;98284.22;;;17.30;57.35
34983;BME280;21187;50.976;13.720;2023-05-06T09:30:08;98295.19;;;17.23;57.09
34983;BME280;21187;50.976;13.720;2023-05-06T09:35:12;98294.41;;;17.08;57.01
34983;BME280;21187;50.976;13.720;2023-05-06T09:40:15;98300.66;;;16.98;57.13
34983;BME280;21187;50.976;13.720;2023-05-06T09:45:17;98294.38;;;16.97;57.25
34983;BME280;21187;50.976;13.720;2023-05-06T09:50:23;98297.16;;;17.04;57.08
34983;BME280;21187;50.976;13.720;2023-05-06T09:55:26;98303.41;;;17.16;56.86
34983;BME280;21187;50.976;13.720;2023-05-06T10:00:30;98297.53;;;17.32;56.89
34983;BME280;21187;50.976;13.720;2023-05-06T10:05:32;98301.44;;;17.49;56.69
34983;BME280;21187;50.976;13.720;2023-05-06T10:10:36;98304.13;;;17.63;56.14
34983;BME280;21187;50.976;13.720;2023-05-06T10:15:38;98304.94;;;17.67;55.90
34983;BME280;21187;50.976;13.720;2023-05-06T10:20:40;98306.09;;;17.59;56.00
34983;BME280;21187;50.976;13.720;2023-05-06T10:25:43;98303.78;;;17.61;55.79
34983;BME280;21187;50.976;13.720;2023-05-06T10:30:47;98304.53;;;17.65;55.54
34983;BME280;21187;50.976;13.720;2023-05-06T10:35:58;98306.09;;;17.62;55.48
34983;BME280;21187;50.976;13.720;2023-05-06T10:41:02;98309.25;;;17.54;55.69
34983;BME280;21187;50.976;13.720;2023-05-06T10:46:13;98311.97;;;17.57;55.47
34983;BME280;21187;50.976;13.720;2023-05-06T10:56:18;98324.13;;;17.38;55.11
34983;BME280;21187;50.976;13.720;2023-05-06T11:01:21;98320.22;;;17.28;55.27
34983;BME280;21187;50.976;13.720;2023-05-06T11:06:34;98319.44;;;17.24;55.14
34983;BME280;21187;50.976;13.720;2023-05-06T11:11:47;98315.53;;;17.29;55.11
34983;BME280;21187;50.976;13.720;2023-05-06T11:16:51;98327.28;;;17.37;54.91
34983;BME280;21187;50.976;13.720;2023-05-06T11:21:54;98328.81;;;17.41;54.84
34983;BME280;21187;50.976;13.720;2023-05-06T11:26:58;98337.03;;;17.45;54.65
34983;BME280;21187;50.976;13.720;2023-05-06T11:32:02;98344.44;;;17.44;55.03
34983;BME280;21187;50.976;13.720;2023-05-06T11:37:10;98347.56;;;17.68;54.52
34983;BME280;21187;50.976;13.720;2023-05-06T11:42:23;98345.19;;;18.06;54.23
34983;BME280;21187;50.976;13.720;2023-05-06T11:47:26;98351.38;;;18.28;53.52
34983;BME280;21187;50.976;13.720;2023-05-06T11:52:32;98350.19;;;18.33;52.99
34983;BME280;21187;50.976;13.720;2023-05-06T11:57:46;98346.66;;;18.40;52.49
34983;BME280;21187;50.976;13.720;2023-05-06T12:02:55;98349.66;;;18.67;52.26
34983;BME280;21187;50.976;13.720;2023-05-06T12:08:03;98352.69;;;18.91;51.76
34983;BME280;21187;50.976;13.720;2023-05-06T12:13:35;98352.66;;;18.98;51.20
34983;BME280;21187;50.976;13.720;2023-05-06T12:18:43;98358.22;;;18.80;50.49
34983;BME280;21187;50.976;13.720;2023-05-06T12:23:56;98351.56;;;18.77;50.37
34983;BME280;21187;50.976;13.720;2023-05-06T12:29:11;98358.56;;;18.93;50.13
34983;BME280;21187;50.976;13.720;2023-05-06T12:34:39;98362.03;;;19.01;49.56
34983;BME280;21187;50.976;13.720;2023-05-06T12:39:42;98367.47;;;19.11;49.53
34983;BME280;21187;50.976;13.720;2023-05-06T12:44:56;98355.94;;;19.31;49.25
34983;BME280;21187;50.976;13.720;2023-05-06T12:50:13;98364.94;;;19.35;49.58
34983;BME280;21187;50.976;13.720;2023-05-06T12:55:37;98369.69;;;19.31;49.65
34983;BME280;21187;50.976;13.720;2023-05-06T13:00:46;98380.69;;;19.24;49.62
34983;BME280;21187;50.976;13.720;2023-05-06T13:05:57;98381.94;;;19.16;49.81
34983;BME280;21187;50.976;13.720;2023-05-06T13:11:04;98379.69;;;19.03;49.87
34983;BME280;21187;50.976;13.720;2023-05-06T13:16:16;98376.94;;;19.03;50.06
34983;BME280;21187;50.976;13.720;2023-05-06T13:21:26;98371.78;;;19.12;49.88
34983;BME280;21187;50.976;13.720;2023-05-06T13:26:41;98368.94;;;19.23;49.78
34983;BME280;21187;50.976;13.720;2023-05-06T13:31:45;98371.28;;;19.25;49.46
34983;BME280;21187;50.976;13.720;2023-05-06T13:36:55;98373.88;;;19.47;49.23
34983;BME280;21187;50.976;13.720;2023-05-06T13:41:59;98380.44;;;19.60;48.99
34983;BME280;21187;50.976;13.720;2023-05-06T13:47:11;98383.66;;;19.51;49.04
34983;BME280;21187;50.976;13.720;2023-05-06T13:52:14;98390.03;;;19.37;49.26
34983;BME280;21187;50.976;13.720;2023-05-06T13:57:24;98384.69;;;19.16;49.01
34983;BME280;21187;50.976;13.720;2023-05-06T14:02:33;98386.28;;;19.09;49.42
34983;BME280;21187;50.976;13.720;2023-05-06T14:07:38;98383.19;;;19.07;49.36
34983;BME280;21187;50.976;13.720;2023-05-06T14:12:44;98372.06;;;19.25;48.97
34983;BME280;21187;50.976;13.720;2023-05-06T14:17:52;98377.09;;;19.34;49.10
34983;BME280;21187;50.976;13.720;2023-05-06T14:23:04;98369.38;;;19.18;49.14
34983;BME280;21187;50.976;13.720;2023-05-06T14:28:08;98387.19;;;18.85;49.43
34983;BME280;21187;50.976;13.720;2023-05-06T14:33:18;98395.50;;;18.70;49.74
34983;BME280;21187;50.976;13.720;2023-05-06T14:38:24;98404.16;;;18.58;50.05
34983;BME280;21187;50.976;13.720;2023-05-06T14:43:29;98406.13;;;18.50;50.04
34983;BME280;21187;50.976;13.720;2023-05-06T14:48:35;98403.84;;;18.34;50.28
34983;BME280;21187;50.976;13.720;2023-05-06T14:53:45;98405.44;;;18.17;50.23
34983;BME280;21187;50.976;13.720;2023-05-06T14:58:53;98402.34;;;18.19;50.35
34983;BME280;21187;50.976;13.720;2023-05-06T15:03:56;98405.44;;;18.21;50.25
34983;BME280;21187;50.976;13.720;2023-05-06T15:09:02;98410.16;;;18.17;50.40
34983;BME280;21187;50.976;13.720;2023-05-06T15:14:05;98407.03;;;18.15;50.56
34983;BME280;21187;50.976;13.720;2023-05-06T15:19:16;98413.66;;;18.17;50.75
34983;BME280;21187;50.976;13.720;2023-05-06T15:24:22;98418.78;;;18.11;50.78
34983;BME280;21187;50.976;13.720;2023-05-06T15:29:25;98427.78;;;18.01;50.70
34983;BME280;21187;50.976;13.720;2023-05-06T15:34:32;98435.22;;;17.97;50.81
34983;BME280;21187;50.976;13.720;2023-05-06T15:39:35;98422.69;;;17.96;50.71
34983;BME280;21187;50.976;13.720;2023-05-06T15:44:42;98419.97;;;17.96;50.77
34983;BME280;21187;50.976;13.720;2023-05-06T15:49:45;98424.25;;;17.83;51.01
34983;BME280;21187;50.976;13.720;2023-05-06T15:55:07;98418.78;;;17.83;50.89
34983;BME280;21187;50.976;13.720;2023-05-06T16:00:17;98426.59;;;17.88;50.37
34983;BME280;21187;50.976;13.720;2023-05-06T16:05:28;98432.88;;;17.88;50.20
34983;BME280;21187;50.976;13.720;2023-05-06T16:10:31;98436.81;;;17.76;50.15
34983;BME280;21187;50.976;13.720;2023-05-06T16:15:38;98444.22;;;17.69;50.35
34983;BME280;21187;50.976;13.720;2023-05-06T16:20:40;98432.09;;;17.66;50.19
34983;BME280;21187;50.976;13.720;2023-05-06T16:25:42;98437.16;;;17.64;50.23
34983;BME280;21187;50.976;13.720;2023-05-06T16:30:45;98438.72;;;17.61;50.10
34983;BME280;21187;50.976;13.720;2023-05-06T16:35:47;98450.84;;;17.53;50.16
34983;BME280;21187;50.976;13.720;2023-05-06T16:40:50;98443.41;;;17.46;50.20
34983;BME280;21187;50.976;13.720;2023-05-06T16:45:52;98443.81;;;17.41;50.16
34983;BME280;21187;50.976;13.720;2023-05-06T16:50:54;98439.88;;;17.39;50.31
34983;BME280;21187;50.976;13.720;2023-05-06T16:55:56;98443.00;;;17.30;50.43
34983;BME280;21187;50.976;13.720;2023-05-06T17:00:59;98443.41;;;17.25;50.37
34983;BME280;21187;50.976;13.720;2023-05-06T17:06:02;98443.38;;;17.18;50.35
34983;BME280;21187;50.976;13.720;2023-05-06T17:11:05;98445.31;;;17.17;50.44
34983;BME280;21187;50.976;13.720;2023-05-06T17:16:08;98452.34;;;17.11;50.38
34983;BME280;21187;50.976;13.720;2023-05-06T17:21:10;98449.59;;;17.07;50.37
34983;BME280;21187;50.976;13.720;2023-05-06T17:26:12;98458.94;;;16.99;50.49
34983;BME280;21187;50.976;13.720;2023-05-06T17:31:15;98444.41;;;16.88;50.60
34983;BME280;21187;50.976;13.720;2023-05-06T17:36:18;98451.78;;;16.76;50.85
34983;BME280;21187;50.976;13.720;2023-05-06T17:41:21;98456.84;;;16.67;50.61
34983;BME280;21187;50.976;13.720;2023-05-06T17:46:24;98466.91;;;16.56;50.86
34983;BME280;21187;50.976;13.720;2023-05-06T17:51:27;98461.47;;;16.56;50.83
34983;BME280;21187;50.976;13.720;2023-05-06T17:56:29;98462.22;;;16.53;50.73
34983;BME280;21187;50.976;13.720;2023-05-06T18:01:32;98468.88;;;16.55;50.73
34983;BME280;21187;50.976;13.720;2023-05-06T18:06:34;98469.56;;;16.41;50.81
34983;BME280;21187;50.976;13.720;2023-05-06T18:11:37;98472.66;;;16.36;50.99
34983;BME280;21187;50.976;13.720;2023-05-06T18:16:39;98477.72;;;16.30;50.97
34983;BME280;21187;50.976;13.720;2023-05-06T18:21:41;98484.72;;;16.28;50.99
34983;BME280;21187;50.976;13.720;2023-05-06T18:26:43;98489.34;;;16.20;51.02
34983;BME280;21187;50.976;13.720;2023-05-06T18:31:46;98490.88;;;16.14;50.78
34983;BME280;21187;50.976;13.720;2023-05-06T18:36:48;98497.78;;;16.01;50.86
34983;BME280;21187;50.976;13.720;2023-05-06T18:41:50;98504.31;;;15.89;51.08
34983;BME280;21187;50.976;13.720;2023-05-06T18:46:52;98517.91;;;15.82;51.24
34983;BME280;21187;50.976;13.720;2023-05-06T18:51:54;98517.16;;;15.81;50.70
34983;BME280;21187;50.976;13.720;2023-05-06T18:56:56;98513.91;;;15.72;50.79
34983;BME280;21187;50.976;13.720;2023-05-06T19:01:59;98518.84;;;15.59;50.87
34983;BME280;21187;50.976;13.720;2023-05-06T19:07:03;98527.34;;;15.50;50.85
34983;BME280;21187;50.976;13.720;2023-05-06T19:12:05;98526.88;;;15.44;51.14
34983;BME280;21187;50.976;13.720;2023-05-06T19:17:07;98532.31;;;15.41;50.88
34983;BME280;21187;50.976;13.720;2023-05-06T19:22:09;98537.31;;;15.35;50.94
34983;BME280;21187;50.976;13.720;2023-05-06T19:27:11;98533.75;;;15.31;51.32
34983;BME280;21187;50.976;13.720;2023-05-06T19:32:13;98530.22;;;15.27;51.36
34983;BME280;21187;50.976;13.720;2023-05-06T19:37:14;98535.16;;;15.18;51.39
34983;BME280;21187;50.976;13.720;2023-05-06T19:42:16;98535.91;;;15.14;51.06
34983;BME280;21187;50.976;13.720;2023-05-06T19:47:18;98548.34;;;15.12;51.01
34983;BME280;21187;50.976;13.720;2023-05-06T19:52:20;98547.13;;;15.09;51.51
34983;BME280;21187;50.976;13.720;2023-05-06T19:57:22;98548.25;;;15.05;51.22
34983;BME280;21187;50.976;13.720;2023-05-06T20:02:24;98534.94;;;15.00;51.70
34983;BME280;21187;50.976;13.720;2023-05-06T20:07:26;98538.03;;;14.98;51.59
34983;BME280;21187;50.976;13.720;2023-05-06T20:12:28;98534.06;;;14.92;51.49
34983;BME280;21187;50.976;13.720;2023-05-06T20:17:31;98535.97;;;14.88;51.67
34983;BME280;21187;50.976;13.720;2023-05-06T20:22:32;98537.03;;;14.79;51.86
34983;BME280;21187;50.976;13.720;2023-05-06T20:27:34;98550.84;;;14.67;51.94
34983;BME280;21187;50.976;13.720;2023-05-06T20:32:39;98537.97;;;14.64;52.07
34983;BME280;21187;50.976;13.720;2023-05-06T20:37:41;98541.41;;;14.61;51.95
34983;BME280;21187;50.976;13.720;2023-05-06T20:42:43;98549.91;;;14.56;52.04
34983;BME280;21187;50.976;13.720;2023-05-06T20:47:45;98543.28;;;14.57;52.20
34983;BME280;21187;50.976;13.720;2023-05-06T20:52:47;98548.72;;;14.57;52.36
34983;BME280;21187;50.976;13.720;2023-05-06T20:57:49;98556.19;;;14.60;52.20
34983;BME280;21187;50.976;13.720;2023-05-06T21:02:50;98559.22;;;14.55;52.28
34983;BME280;21187;50.976;13.720;2023-05-06T21:07:52;98567.34;;;14.51;52.13
34983;BME280;21187;50.976;13.720;2023-05-06T21:12:54;98566.88;;;14.45;52.16
34983;BME280;21187;50.976;13.720;2023-05-06T21:17:56;98570.00;;;14.47;52.25
34983;BME280;21187;50.976;13.720;2023-05-06T21:22:58;98574.25;;;14.45;52.46
34983;BME280;21187;50.976;13.720;2023-05-06T21:28:00;98567.59;;;14.42;52.33
34983;BME280;21187;50.976;13.720;2023-05-06T21:33:06;98570.69;;;14.41;52.30
34983;BME280;21187;50.976;13.720;2023-05-06T21:38:12;98571.34;;;14.34;52.78
34983;BME280;21187;50.976;13.720;2023-05-06T21:43:14;98571.13;;;14.20;52.55
34983;BME280;21187;50.976;13.720;2023-05-06T21:48:18;98578.81;;;14.14;52.95
34983;BME280;21187;50.976;13.720;2023-05-06T21:53:23;98583.50;;;14.13;53.32
34983;BME280;21187;50.976;13.720;2023-05-06T21:58:25;98590.38;;;14.07;53.31
34983;BME280;21187;50.976;13.720;2023-05-06T22:03:27;98583.25;;;13.99;53.41
34983;BME280;21187;50.976;13.720;2023-05-06T22:08:29;98580.91;;;14.01;53.39
34983;BME280;21187;50.976;13.720;2023-05-06T22:13:31;98581.72;;;14.02;53.45
34983;BME280;21187;50.976;13.720;2023-05-06T22:18:33;98588.69;;;13.99;53.37
34983;BME280;21187;50.976;13.720;2023-05-06T22:23:36;98583.94;;;13.96;53.64
34983;BME280;21187;50.976;13.720;2023-05-06T22:28:41;98577.78;;;13.99;54.01
34983;BME280;21187;50.976;13.720;2023-05-06T22:33:42;98584.25;;;13.91;53.80
34983;BME280;21187;50.976;13.720;2023-05-06T22:38:44;98587.28;;;13.86;53.87
34983;BME280;21187;50.976;13.720;2023-05-06T22:43:46;98593.06;;;13.84;54.33
34983;BME280;21187;50.976;13.720;2023-05-06T22:48:48;98590.78;;;13.86;54.47
34983;BME280;21187;50.976;13.720;2023-05-06T22:53:50;98589.19;;;13.85;54.53
34983;BME280;21187;50.976;13.720;2023-05-06T22:58:52;98588.72;;;13.79;54.40
34983;BME280;21187;50.976;13.720;2023-05-06T23:03:54;98582.34;;;13.72;54.77
34983;BME280;21187;50.976;13.720;2023-05-06T23:08:56;98590.44;;;13.68;54.51
34983;BME280;21187;50.976;13.720;2023-05-06T23:13:58;98581.88;;;13.66;54.69
34983;BME280;21187;50.976;13.720;2023-05-06T23:19:00;98579.44;;;13.61;54.62
34983;BME280;21187;50.976;13.720;2023-05-06T23:24:02;98584.34;;;13.55;54.60
34983;BME280;21187;50.976;13.720;2023-05-06T23:29:03;98581.88;;;13.46;55.00
34983;BME280;21187;50.976;13.720;2023-05-06T23:34:05;98580.56;;;13.40;54.64
34983;BME280;21187;50.976;13.720;2023-05-06T23:39:07;98586.19;;;13.31;54.71
34983;BME280;21187;50.976;13.720;2023-05-06T23:44:12;98600.44;;;13.25;54.90
34983;BME280;21187;50.976;13.720;2023-05-06T23:49:15;98598.44;;;13.22;54.85
34983;BME280;21187;50.976;13.720;2023-05-06T23:54:17;98592.50;;;13.16;54.89
34983;BME280;21187;50.976;13.720;2023-05-06T23:59:18;98591.28;;;13.13;54.89
